createdAt,value
2023-08-16T00:00:30.778Z,1014.36
2023-08-16T00:01:30.677Z,1014.35
2023-08-16T00:02:30.773Z,1014.36
2023-08-16T00:03:30.772Z,1014.37
2023-08-16T00:04:30.687Z,1014.36
2023-08-16T00:05:30.696Z,1014.36
2023-08-16T00:06:30.622Z,1014.36
2023-08-16T00:07:30.664Z,1014.37
2023-08-16T00:08:30.632Z,1014.40
2023-08-16T00:09:30.621Z,1014.41
2023-08-16T00:10:30.593Z,1014.43
2023-08-16T00:11:30.646Z,1014.43
2023-08-16T00:12:30.597Z,1014.43
2023-08-16T00:13:30.578Z,1014.42
2023-08-16T00:14:30.551Z,1014.42
2023-08-16T00:15:30.764Z,1014.43
2023-08-16T00:16:30.574Z,1014.44
2023-08-16T00:17:30.544Z,1014.43
2023-08-16T00:18:30.577Z,1014.43
2023-08-16T00:19:30.501Z,1014.40
2023-08-16T00:20:30.559Z,1014.36
2023-08-16T00:21:30.568Z,1014.31
2023-08-16T00:22:30.526Z,1014.27
2023-08-16T00:23:30.537Z,1014.25
2023-08-16T00:24:30.438Z,1014.23
2023-08-16T00:25:30.440Z,1014.24
2023-08-16T00:26:30.454Z,1014.26
2023-08-16T00:27:30.441Z,1014.28
2023-08-16T00:28:30.408Z,1014.31
2023-08-16T00:29:30.470Z,1014.32
2023-08-16T00:30:30.367Z,1014.33
2023-08-16T00:31:30.411Z,1014.35
2023-08-16T00:32:30.428Z,1014.37
2023-08-16T00:33:30.413Z,1014.40
2023-08-16T00:34:30.391Z,1014.42
2023-08-16T00:35:30.374Z,1014.44
2023-08-16T00:36:30.334Z,1014.45
2023-08-16T00:37:30.326Z,1014.44
2023-08-16T00:38:30.297Z,1014.44
2023-08-16T00:39:30.296Z,1014.43
2023-08-16T00:40:30.333Z,1014.43
2023-08-16T00:41:30.267Z,1014.42
2023-08-16T00:42:30.274Z,1014.40
2023-08-16T00:43:30.293Z,1014.38
2023-08-16T00:44:31.174Z,1014.36
2023-08-16T00:45:30.236Z,1014.34
2023-08-16T00:46:30.265Z,1014.33
2023-08-16T00:47:30.254Z,1014.33
2023-08-16T00:48:30.203Z,1014.33
2023-08-16T00:49:30.350Z,1014.34
2023-08-16T00:50:30.180Z,1014.35
2023-08-16T00:51:30.167Z,1014.36
2023-08-16T00:52:30.140Z,1014.39
2023-08-16T00:53:30.149Z,1014.41
2023-08-16T00:54:30.156Z,1014.43
2023-08-16T00:55:30.132Z,1014.44
2023-08-16T00:56:30.125Z,1014.44
2023-08-16T00:57:30.095Z,1014.43
2023-08-16T00:58:30.129Z,1014.43
2023-08-16T00:59:30.111Z,1014.43
2023-08-16T01:00:30.079Z,1014.43
2023-08-16T01:01:30.127Z,1014.44
2023-08-16T01:02:30.192Z,1014.45
2023-08-16T01:03:30.129Z,1014.46
2023-08-16T01:04:30.055Z,1014.48
2023-08-16T01:05:30.042Z,1014.49
2023-08-16T01:06:30.044Z,1014.49
2023-08-16T01:07:30.026Z,1014.49
2023-08-16T01:08:30.048Z,1014.49
2023-08-16T01:09:29.975Z,1014.50
2023-08-16T01:10:29.983Z,1014.50
2023-08-16T01:11:30.022Z,1014.48
2023-08-16T01:12:29.989Z,1014.47
2023-08-16T01:13:29.962Z,1014.45
2023-08-16T01:14:29.916Z,1014.43
2023-08-16T01:15:29.914Z,1014.43
2023-08-16T01:16:29.960Z,1014.44
2023-08-16T01:17:29.988Z,1014.44
2023-08-16T01:18:29.907Z,1014.43
2023-08-16T01:19:29.887Z,1014.43
2023-08-16T01:20:29.933Z,1014.43
2023-08-16T01:21:29.880Z,1014.44
2023-08-16T01:22:29.862Z,1014.45
2023-08-16T01:23:29.834Z,1014.44
2023-08-16T01:24:29.823Z,1014.45
2023-08-16T01:25:29.834Z,1014.46
2023-08-16T01:26:29.829Z,1014.46
2023-08-16T01:27:29.826Z,1014.46
2023-08-16T01:28:29.777Z,1014.46
2023-08-16T01:29:29.799Z,1014.47
2023-08-16T01:30:29.795Z,1014.48
2023-08-16T01:31:29.799Z,1014.48
2023-08-16T01:32:29.785Z,1014.49
2023-08-16T01:33:29.754Z,1014.50
2023-08-16T01:34:29.712Z,1014.50
2023-08-16T01:35:29.694Z,1014.50
2023-08-16T01:36:29.709Z,1014.49
2023-08-16T01:37:29.726Z,1014.49
2023-08-16T01:38:29.736Z,1014.48
2023-08-16T01:39:29.664Z,1014.47
2023-08-16T01:40:29.678Z,1014.47
2023-08-16T01:41:29.652Z,1014.47
2023-08-16T01:42:29.649Z,1014.47
2023-08-16T01:43:29.709Z,1014.48
2023-08-16T01:44:29.654Z,1014.49
2023-08-16T01:45:29.670Z,1014.49
2023-08-16T01:46:29.691Z,1014.49
2023-08-16T01:47:29.629Z,1014.49
2023-08-16T01:48:29.575Z,1014.49
2023-08-16T01:49:29.599Z,1014.48
2023-08-16T01:50:29.586Z,1014.47
2023-08-16T01:51:29.563Z,1014.45
2023-08-16T01:52:29.587Z,1014.44
2023-08-16T01:53:29.530Z,1014.42
2023-08-16T01:54:29.541Z,1014.41
2023-08-16T01:55:29.525Z,1014.40
2023-08-16T01:56:29.519Z,1014.40
2023-08-16T01:57:29.566Z,1014.40
2023-08-16T01:58:29.555Z,1014.39
2023-08-16T01:59:29.521Z,1014.40
2023-08-16T02:00:29.465Z,1014.40
2023-08-16T02:01:29.485Z,1014.41
2023-08-16T02:02:29.497Z,1014.41
2023-08-16T02:03:29.502Z,1014.41
2023-08-16T02:04:29.453Z,1014.40
2023-08-16T02:05:29.418Z,1014.39
2023-08-16T02:06:29.372Z,1014.38
2023-08-16T02:07:29.412Z,1014.36
2023-08-16T02:08:29.389Z,1014.35
2023-08-16T02:09:29.382Z,1014.34
2023-08-16T02:10:29.338Z,1014.33
2023-08-16T02:11:29.336Z,1014.32
2023-08-16T02:12:29.318Z,1014.32
2023-08-16T02:13:29.329Z,1014.33
2023-08-16T02:14:29.301Z,1014.33
2023-08-16T02:15:29.299Z,1014.34
2023-08-16T02:16:29.290Z,1014.35
2023-08-16T02:17:29.345Z,1014.35
2023-08-16T02:18:29.247Z,1014.34
2023-08-16T02:19:29.253Z,1014.33
2023-08-16T02:20:29.225Z,1014.33
2023-08-16T02:21:29.211Z,1014.31
2023-08-16T02:22:41.639Z,1014.31
2023-08-16T02:23:29.195Z,1014.29
2023-08-16T02:24:29.209Z,1014.29
2023-08-16T02:25:29.230Z,1014.29
2023-08-16T02:26:29.194Z,1014.28
2023-08-16T02:27:29.158Z,1014.27
2023-08-16T02:28:29.464Z,1014.26
2023-08-16T02:29:29.159Z,1014.25
2023-08-16T02:30:29.144Z,1014.24
2023-08-16T02:31:29.165Z,1014.24
2023-08-16T02:32:29.183Z,1014.23
2023-08-16T02:33:29.094Z,1014.23
2023-08-16T02:34:29.113Z,1014.22
2023-08-16T02:35:29.078Z,1014.22
2023-08-16T02:36:29.048Z,1014.23
2023-08-16T02:37:29.065Z,1014.24
2023-08-16T02:38:29.059Z,1014.26
2023-08-16T02:39:29.057Z,1014.28
2023-08-16T02:40:29.056Z,1014.30
2023-08-16T02:41:29.019Z,1014.31
2023-08-16T02:42:29.062Z,1014.32
2023-08-16T02:43:28.998Z,1014.33
2023-08-16T02:44:29.018Z,1014.33
2023-08-16T02:45:28.962Z,1014.32
2023-08-16T02:46:28.996Z,1014.30
2023-08-16T02:47:29.002Z,1014.28
2023-08-16T02:48:28.960Z,1014.27
2023-08-16T02:49:28.999Z,1014.26
2023-08-16T02:50:28.959Z,1014.27
2023-08-16T02:51:28.941Z,1014.29
2023-08-16T02:52:28.964Z,1014.30
2023-08-16T02:53:28.928Z,1014.33
2023-08-16T02:54:28.916Z,1014.34
2023-08-16T02:55:28.910Z,1014.36
2023-08-16T02:56:28.870Z,1014.36
2023-08-16T02:57:28.868Z,1014.36
2023-08-16T02:58:28.848Z,1014.34
2023-08-16T02:59:28.810Z,1014.32
2023-08-16T03:00:28.869Z,1014.29
2023-08-16T03:01:28.862Z,1014.28
2023-08-16T03:02:28.832Z,1014.26
2023-08-16T03:03:28.781Z,1014.25
2023-08-16T03:04:28.794Z,1014.25
2023-08-16T03:05:28.769Z,1014.24
2023-08-16T03:06:28.770Z,1014.24
2023-08-16T03:07:28.752Z,1014.23
2023-08-16T03:08:28.713Z,1014.21
2023-08-16T03:09:28.738Z,1014.20
2023-08-16T03:10:28.720Z,1014.19
2023-08-16T03:11:28.738Z,1014.18
2023-08-16T03:12:28.745Z,1014.16
2023-08-16T03:13:28.666Z,1014.16
2023-08-16T03:14:28.671Z,1014.16
2023-08-16T03:15:28.639Z,1014.18
2023-08-16T03:16:28.770Z,1014.20
2023-08-16T03:17:28.627Z,1014.21
2023-08-16T03:18:28.671Z,1014.22
2023-08-16T03:19:28.621Z,1014.23
2023-08-16T03:20:28.602Z,1014.24
2023-08-16T03:21:28.621Z,1014.23
2023-08-16T03:22:28.614Z,1014.23
2023-08-16T03:23:28.688Z,1014.23
2023-08-16T03:24:28.570Z,1014.24
2023-08-16T03:25:28.553Z,1014.25
2023-08-16T03:26:28.591Z,1014.27
2023-08-16T03:27:28.547Z,1014.29
2023-08-16T03:28:28.543Z,1014.32
2023-08-16T03:29:28.513Z,1014.34
2023-08-16T03:30:28.487Z,1014.36
2023-08-16T03:31:28.484Z,1014.39
2023-08-16T03:32:28.566Z,1014.41
2023-08-16T03:33:28.515Z,1014.42
2023-08-16T03:34:28.463Z,1014.43
2023-08-16T03:35:28.453Z,1014.43
2023-08-16T03:36:28.439Z,1014.42
2023-08-16T03:37:28.440Z,1014.41
2023-08-16T03:38:28.412Z,1014.40
2023-08-16T03:39:28.484Z,1014.38
2023-08-16T03:40:28.379Z,1014.36
2023-08-16T03:41:28.412Z,1014.35
2023-08-16T03:42:28.331Z,1014.35
2023-08-16T03:43:28.358Z,1014.36
2023-08-16T03:44:28.417Z,1014.37
2023-08-16T03:45:28.336Z,1014.40
2023-08-16T03:46:28.335Z,1014.41
2023-08-16T03:47:28.594Z,1014.42
2023-08-16T03:48:28.258Z,1014.43
2023-08-16T03:49:28.219Z,1014.43
2023-08-16T03:50:28.248Z,1014.44
2023-08-16T03:51:28.225Z,1014.45
2023-08-16T03:52:28.230Z,1014.45
2023-08-16T03:53:28.222Z,1014.45
2023-08-16T03:54:28.210Z,1014.44
2023-08-16T03:55:28.264Z,1014.43
2023-08-16T03:56:28.244Z,1014.43
2023-08-16T03:57:28.165Z,1014.43
2023-08-16T03:58:28.182Z,1014.44
2023-08-16T03:59:28.160Z,1014.45
2023-08-16T04:00:28.156Z,1014.47
2023-08-16T04:01:28.142Z,1014.49
2023-08-16T04:02:28.151Z,1014.50
2023-08-16T04:03:28.174Z,1014.50
2023-08-16T04:04:28.139Z,1014.51
2023-08-16T04:05:28.086Z,1014.52
2023-08-16T04:06:28.092Z,1014.53
2023-08-16T04:07:28.061Z,1014.55
2023-08-16T04:08:28.036Z,1014.56
2023-08-16T04:09:28.030Z,1014.57
2023-08-16T04:10:28.056Z,1014.57
2023-08-16T04:11:28.026Z,1014.56
2023-08-16T04:12:27.995Z,1014.55
2023-08-16T04:13:27.997Z,1014.53
2023-08-16T04:14:27.990Z,1014.51
2023-08-16T04:15:27.999Z,1014.52
2023-08-16T04:16:27.992Z,1014.53
2023-08-16T04:17:28.011Z,1014.54
2023-08-16T04:18:27.927Z,1014.56
2023-08-16T04:19:27.931Z,1014.57
2023-08-16T04:20:27.927Z,1014.58
2023-08-16T04:21:27.876Z,1014.59
2023-08-16T04:22:27.864Z,1014.59
2023-08-16T04:23:27.909Z,1014.61
2023-08-16T04:24:27.893Z,1014.61
2023-08-16T04:25:27.878Z,1014.60
2023-08-16T04:26:27.850Z,1014.61
2023-08-16T04:27:27.885Z,1014.62
2023-08-16T04:28:27.802Z,1014.61
2023-08-16T04:29:27.844Z,1014.61
2023-08-16T04:30:27.814Z,1014.61
2023-08-16T04:31:27.821Z,1014.62
2023-08-16T04:32:28.158Z,1014.64
2023-08-16T04:33:29.460Z,1014.66
2023-08-16T04:34:27.809Z,1014.68
2023-08-16T04:35:27.736Z,1014.69
2023-08-16T04:36:27.796Z,1014.71
2023-08-16T04:37:27.766Z,1014.72
2023-08-16T04:38:27.726Z,1014.74
2023-08-16T04:39:27.690Z,1014.73
2023-08-16T04:40:27.716Z,1014.73
2023-08-16T04:41:27.686Z,1014.73
2023-08-16T04:42:27.682Z,1014.72
2023-08-16T04:43:27.666Z,1014.72
2023-08-16T04:44:27.664Z,1014.73
2023-08-16T04:45:27.631Z,1014.73
2023-08-16T04:46:27.735Z,1014.75
2023-08-16T04:47:27.648Z,1014.74
2023-08-16T04:48:27.648Z,1014.74
2023-08-16T04:49:27.572Z,1014.73
2023-08-16T04:50:27.823Z,1014.73
2023-08-16T04:51:27.572Z,1014.72
2023-08-16T04:52:27.569Z,1014.72
2023-08-16T04:53:27.532Z,1014.70
2023-08-16T04:54:27.531Z,1014.69
2023-08-16T04:55:27.505Z,1014.68
2023-08-16T04:56:27.604Z,1014.69
2023-08-16T04:57:27.726Z,1014.69
2023-08-16T04:58:27.508Z,1014.72
2023-08-16T04:59:27.514Z,1014.76
2023-08-16T05:00:27.466Z,1014.80
2023-08-16T05:01:27.515Z,1014.85
2023-08-16T05:02:27.601Z,1014.88
2023-08-16T05:03:27.464Z,1014.92
2023-08-16T05:04:27.452Z,1014.93
2023-08-16T05:05:27.596Z,1014.92
2023-08-16T05:06:27.394Z,1014.92
2023-08-16T05:07:27.390Z,1014.92
2023-08-16T05:08:27.552Z,1014.92
2023-08-16T05:09:27.390Z,1014.92
2023-08-16T05:10:27.428Z,1014.95
2023-08-16T05:11:27.352Z,1014.98
2023-08-16T05:12:27.362Z,1014.98
2023-08-16T05:13:27.333Z,1014.98
2023-08-16T05:14:27.366Z,1014.98
2023-08-16T05:15:27.317Z,1014.98
2023-08-16T05:16:27.334Z,1014.98
2023-08-16T05:17:27.639Z,1014.98
2023-08-16T05:18:27.270Z,1014.99
2023-08-16T05:19:27.276Z,1015.00
2023-08-16T05:20:27.267Z,1015.05
2023-08-16T05:21:27.229Z,1015.07
2023-08-16T05:22:27.229Z,1015.08
2023-08-16T05:23:27.265Z,1015.13
2023-08-16T05:24:27.193Z,1015.18
2023-08-16T05:25:27.261Z,1015.23
2023-08-16T05:26:27.221Z,1015.28
2023-08-16T05:27:27.173Z,1015.32
2023-08-16T05:28:27.145Z,1015.34
2023-08-16T05:29:29.359Z,1015.37
2023-08-16T05:30:27.157Z,1015.41
2023-08-16T05:31:27.186Z,1015.43
2023-08-16T05:32:27.196Z,1015.44
2023-08-16T05:33:27.648Z,1015.45
2023-08-16T05:34:27.677Z,1015.47
2023-08-16T05:35:28.343Z,1015.49
2023-08-16T05:36:27.476Z,1015.49
2023-08-16T05:37:27.317Z,1015.47
2023-08-16T05:38:27.028Z,1015.46
2023-08-16T05:39:27.066Z,1015.43
2023-08-16T05:40:27.639Z,1015.40
2023-08-16T05:41:27.028Z,1015.39
2023-08-16T05:42:26.999Z,1015.40
2023-08-16T05:43:27.002Z,1015.42
2023-08-16T05:44:26.996Z,1015.45
2023-08-16T05:45:27.048Z,1015.48
2023-08-16T05:46:27.002Z,1015.53
2023-08-16T05:47:27.217Z,1015.57
2023-08-16T05:48:26.957Z,1015.60
2023-08-16T05:49:26.943Z,1015.63
2023-08-16T05:50:26.913Z,1015.63
2023-08-16T05:51:26.910Z,1015.61
2023-08-16T05:52:26.931Z,1015.63
2023-08-16T05:53:26.894Z,1015.62
2023-08-16T05:54:26.862Z,1015.63
2023-08-16T05:55:26.877Z,1015.64
2023-08-16T05:56:26.854Z,1015.65
2023-08-16T05:57:27.007Z,1015.69
2023-08-16T05:58:26.834Z,1015.72
2023-08-16T05:59:26.819Z,1015.75
2023-08-16T06:00:26.876Z,1015.79
2023-08-16T06:01:26.955Z,1015.82
2023-08-16T06:02:26.823Z,1015.85
2023-08-16T06:03:26.868Z,1015.88
2023-08-16T06:04:26.766Z,1015.90
2023-08-16T06:05:26.865Z,1015.94
2023-08-16T06:06:26.746Z,1015.95
2023-08-16T06:07:27.032Z,1015.97
2023-08-16T06:08:27.151Z,1015.99
2023-08-16T06:09:26.744Z,1016.00
2023-08-16T06:10:26.701Z,1015.99
2023-08-16T06:11:26.688Z,1015.95
2023-08-16T06:12:26.715Z,1015.90
2023-08-16T06:13:26.756Z,1015.84
2023-08-16T06:14:26.644Z,1015.80
2023-08-16T06:15:26.634Z,1015.75
2023-08-16T06:16:26.664Z,1015.72
2023-08-16T06:17:26.969Z,1015.70
2023-08-16T06:18:26.598Z,1015.71
2023-08-16T06:19:26.601Z,1015.74
2023-08-16T06:20:26.600Z,1015.75
2023-08-16T06:21:26.631Z,1015.75
2023-08-16T06:22:26.627Z,1015.75
2023-08-16T06:23:26.554Z,1015.74
2023-08-16T06:24:26.631Z,1015.71
2023-08-16T06:25:26.566Z,1015.69
2023-08-16T06:26:26.635Z,1015.66
2023-08-16T06:27:26.824Z,1015.65
2023-08-16T06:28:26.785Z,1015.64
2023-08-16T06:29:26.493Z,1015.64
2023-08-16T06:30:26.507Z,1015.65
2023-08-16T06:31:26.568Z,1015.66
2023-08-16T06:32:26.568Z,1015.66
2023-08-16T06:33:26.617Z,1015.66
2023-08-16T06:34:26.526Z,1015.65
2023-08-16T06:35:26.421Z,1015.65
2023-08-16T06:36:26.410Z,1015.64
2023-08-16T06:37:26.582Z,1015.62
2023-08-16T06:38:26.443Z,1015.63
2023-08-16T06:39:26.428Z,1015.60
2023-08-16T06:40:26.462Z,1015.60
2023-08-16T06:41:26.498Z,1015.60
2023-08-16T06:42:26.381Z,1015.60
2023-08-16T06:43:26.336Z,1015.61
2023-08-16T06:44:26.338Z,1015.62
2023-08-16T06:45:26.321Z,1015.63
2023-08-16T06:46:26.767Z,1015.65
2023-08-16T06:47:26.709Z,1015.66
2023-08-16T06:48:26.330Z,1015.67
2023-08-16T06:49:26.375Z,1015.68
2023-08-16T06:50:26.318Z,1015.69
2023-08-16T06:51:26.279Z,1015.69
2023-08-16T06:52:27.258Z,1015.69
2023-08-16T06:53:26.241Z,1015.69
2023-08-16T06:54:26.277Z,1015.68
2023-08-16T06:55:26.225Z,1015.68
2023-08-16T06:56:26.321Z,1015.67
2023-08-16T06:57:26.558Z,1015.68
2023-08-16T06:58:26.277Z,1015.70
2023-08-16T06:59:26.190Z,1015.71
2023-08-16T07:00:26.212Z,1015.72
2023-08-16T07:01:26.247Z,1015.74
2023-08-16T07:02:28.962Z,1015.75
2023-08-16T07:03:26.270Z,1015.76
2023-08-16T07:04:26.158Z,1015.76
2023-08-16T07:05:26.110Z,1015.77
2023-08-16T07:06:26.148Z,1015.78
2023-08-16T07:07:26.105Z,1015.79
2023-08-16T07:08:26.111Z,1015.79
2023-08-16T07:09:26.153Z,1015.79
2023-08-16T07:10:26.056Z,1015.80
2023-08-16T07:11:26.109Z,1015.79
2023-08-16T07:12:26.308Z,1015.79
2023-08-16T07:13:26.026Z,1015.80
2023-08-16T07:14:26.066Z,1015.80
2023-08-16T07:15:26.067Z,1015.80
2023-08-16T07:16:26.042Z,1015.81
2023-08-16T07:17:26.013Z,1015.81
2023-08-16T07:18:25.959Z,1015.80
2023-08-16T07:19:25.999Z,1015.81
2023-08-16T07:20:25.975Z,1015.80
2023-08-16T07:21:25.981Z,1015.79
2023-08-16T07:22:26.460Z,1015.78
2023-08-16T07:23:25.939Z,1015.78
2023-08-16T07:24:25.930Z,1015.77
2023-08-16T07:25:25.937Z,1015.75
2023-08-16T07:26:25.924Z,1015.74
2023-08-16T07:27:25.957Z,1015.73
2023-08-16T07:28:25.904Z,1015.72
2023-08-16T07:29:25.870Z,1015.72
2023-08-16T07:30:25.847Z,1015.73
2023-08-16T07:31:25.985Z,1015.74
2023-08-16T07:32:26.140Z,1015.73
2023-08-16T07:33:25.833Z,1015.75
2023-08-16T07:34:25.786Z,1015.76
2023-08-16T07:35:25.793Z,1015.78
2023-08-16T07:36:25.840Z,1015.78
2023-08-16T07:37:25.797Z,1015.79
2023-08-16T07:38:25.778Z,1015.78
2023-08-16T07:39:25.835Z,1015.78
2023-08-16T07:40:25.729Z,1015.78
2023-08-16T07:41:25.779Z,1015.79
2023-08-16T07:42:26.003Z,1015.79
2023-08-16T07:43:25.697Z,1015.80
2023-08-16T07:44:25.721Z,1015.80
2023-08-16T07:45:25.697Z,1015.82
2023-08-16T07:46:25.772Z,1015.82
2023-08-16T07:47:25.666Z,1015.83
2023-08-16T07:48:25.646Z,1015.86
2023-08-16T07:49:25.683Z,1015.85
2023-08-16T07:50:25.699Z,1015.85
2023-08-16T07:51:25.660Z,1015.84
2023-08-16T07:52:25.876Z,1015.86
2023-08-16T07:53:25.677Z,1015.84
2023-08-16T07:54:25.599Z,1015.82
2023-08-16T07:55:25.573Z,1015.82
2023-08-16T07:56:25.612Z,1015.79
2023-08-16T07:57:25.560Z,1015.80
2023-08-16T07:58:25.551Z,1015.81
2023-08-16T07:59:25.587Z,1015.84
2023-08-16T08:00:25.525Z,1015.85
2023-08-16T08:01:25.572Z,1015.88
2023-08-16T08:02:27.907Z,1015.91
2023-08-16T08:03:25.583Z,1015.93
2023-08-16T08:04:25.483Z,1015.94
2023-08-16T08:05:25.591Z,1015.95
2023-08-16T08:06:25.460Z,1015.95
2023-08-16T08:07:25.521Z,1015.96
2023-08-16T08:08:25.438Z,1015.98
2023-08-16T08:09:25.491Z,1015.99
2023-08-16T08:10:25.423Z,1016.01
2023-08-16T08:11:25.457Z,1016.02
2023-08-16T08:12:25.907Z,1016.05
2023-08-16T08:13:25.451Z,1016.07
2023-08-16T08:14:25.445Z,1016.07
2023-08-16T08:15:25.386Z,1016.06
2023-08-16T08:16:25.549Z,1016.06
2023-08-16T08:17:25.366Z,1016.05
2023-08-16T08:18:25.384Z,1016.02
2023-08-16T08:19:25.312Z,1016.02
2023-08-16T08:20:25.293Z,1016.00
2023-08-16T08:21:25.317Z,1015.98
2023-08-16T08:22:25.560Z,1015.97
2023-08-16T08:23:25.315Z,1015.96
2023-08-16T08:24:25.289Z,1015.95
2023-08-16T08:25:25.269Z,1015.95
2023-08-16T08:26:25.282Z,1015.93
2023-08-16T08:27:25.251Z,1015.94
2023-08-16T08:28:25.218Z,1015.93
2023-08-16T08:29:25.978Z,1015.94
2023-08-16T08:30:25.238Z,1015.95
2023-08-16T08:31:25.239Z,1015.95
2023-08-16T08:32:25.422Z,1015.97
2023-08-16T08:33:25.186Z,1016.01
2023-08-16T08:34:25.222Z,1016.02
2023-08-16T08:35:25.220Z,1016.07
2023-08-16T08:36:25.247Z,1016.07
2023-08-16T08:37:25.170Z,1016.09
2023-08-16T08:38:25.141Z,1016.12
2023-08-16T08:39:25.144Z,1016.12
2023-08-16T08:40:25.094Z,1016.13
2023-08-16T08:41:30.938Z,1016.11
2023-08-16T08:42:25.073Z,1016.11
2023-08-16T08:43:25.158Z,1016.09
2023-08-16T08:44:25.060Z,1016.10
2023-08-16T08:45:25.135Z,1016.09
2023-08-16T08:46:25.024Z,1016.09
2023-08-16T08:47:25.020Z,1016.10
2023-08-16T08:48:25.032Z,1016.11
2023-08-16T08:49:25.021Z,1016.12
2023-08-16T08:50:24.970Z,1016.14
2023-08-16T08:51:25.003Z,1016.17
2023-08-16T08:52:25.264Z,1016.17
2023-08-16T08:53:24.965Z,1016.18
2023-08-16T08:54:24.968Z,1016.17
2023-08-16T08:55:24.993Z,1016.16
2023-08-16T08:56:24.932Z,1016.17
2023-08-16T08:57:24.987Z,1016.17
2023-08-16T08:58:24.901Z,1016.16
2023-08-16T08:59:24.921Z,1016.15
2023-08-16T09:00:24.903Z,1016.21
2023-08-16T09:01:24.911Z,1016.20
2023-08-16T09:02:25.149Z,1016.23
2023-08-16T09:03:25.001Z,1016.24
2023-08-16T09:04:24.840Z,1016.24
2023-08-16T09:05:24.890Z,1016.27
2023-08-16T09:06:24.876Z,1016.31
2023-08-16T09:07:24.831Z,1016.32
2023-08-16T09:08:24.800Z,1016.31
2023-08-16T09:09:24.819Z,1016.32
2023-08-16T09:10:24.795Z,1016.32
2023-08-16T09:11:24.817Z,1016.32
2023-08-16T09:12:24.987Z,1016.30
2023-08-16T09:13:24.763Z,1016.30
2023-08-16T09:14:24.771Z,1016.30
2023-08-16T09:15:24.787Z,1016.31
2023-08-16T09:16:24.784Z,1016.31
2023-08-16T09:17:24.890Z,1016.31
2023-08-16T09:18:25.442Z,1016.31
2023-08-16T09:19:24.712Z,1016.31
2023-08-16T09:20:24.714Z,1016.30
2023-08-16T09:21:24.668Z,1016.31
2023-08-16T09:22:24.999Z,1016.31
2023-08-16T09:23:24.722Z,1016.31
2023-08-16T09:24:24.649Z,1016.29
2023-08-16T09:25:24.642Z,1016.31
2023-08-16T09:26:24.706Z,1016.31
2023-08-16T09:27:24.632Z,1016.32
2023-08-16T09:28:24.629Z,1016.35
2023-08-16T09:29:24.632Z,1016.32
2023-08-16T09:30:24.706Z,1016.32
2023-08-16T09:31:24.597Z,1016.31
2023-08-16T09:32:26.730Z,1016.29
2023-08-16T09:33:24.599Z,1016.27
2023-08-16T09:34:35.332Z,1016.24
2023-08-16T09:35:24.589Z,1016.25
2023-08-16T09:36:24.533Z,1016.23
2023-08-16T09:37:25.067Z,1016.21
2023-08-16T09:39:24.525Z,1016.19
2023-08-16T09:40:24.479Z,1016.18
2023-08-16T09:41:24.545Z,1016.19
2023-08-16T09:42:24.711Z,1016.22
2023-08-16T09:43:24.443Z,1016.21
2023-08-16T09:44:24.455Z,1016.22
2023-08-16T09:45:24.521Z,1016.23
2023-08-16T09:46:24.452Z,1016.24
2023-08-16T09:47:40.827Z,1016.24
2023-08-16T09:48:24.459Z,1016.24
2023-08-16T09:49:24.389Z,1016.27
2023-08-16T09:50:24.420Z,1016.27
2023-08-16T09:52:13.316Z,1016.24
2023-08-16T09:52:24.390Z,1016.24
2023-08-16T09:54:24.527Z,1016.24
2023-08-16T09:55:24.344Z,1016.23
2023-08-16T09:58:24.336Z,1016.29
2023-08-16T10:00:24.295Z,1016.30
2023-08-16T10:02:50.144Z,1016.30
2023-08-16T10:03:24.297Z,1016.31
2023-08-16T10:05:27.731Z,1016.30
2023-08-16T10:07:24.227Z,1016.27
2023-08-16T10:08:24.216Z,1016.25
2023-08-16T10:09:24.174Z,1016.25
2023-08-16T10:10:24.170Z,1016.25
2023-08-16T10:11:24.279Z,1016.25
2023-08-16T10:12:24.400Z,1016.25
2023-08-16T10:13:24.140Z,1016.25
2023-08-16T10:14:24.132Z,1016.25
2023-08-16T10:15:24.169Z,1016.26
2023-08-16T10:16:24.161Z,1016.28
2023-08-16T10:17:24.100Z,1016.28
2023-08-16T10:18:24.126Z,1016.30
2023-08-16T10:19:24.095Z,1016.31
2023-08-16T10:20:24.112Z,1016.33
2023-08-16T10:21:24.079Z,1016.35
2023-08-16T10:23:24.041Z,1016.39
2023-08-16T10:26:24.037Z,1016.36
2023-08-16T10:27:24.017Z,1016.34
2023-08-16T10:28:24.015Z,1016.35
2023-08-16T10:29:24.029Z,1016.35
2023-08-16T10:30:24.035Z,1016.34
2023-08-16T10:31:24.068Z,1016.33
2023-08-16T10:32:24.169Z,1016.33
2023-08-16T10:33:23.950Z,1016.32
2023-08-16T10:34:23.958Z,1016.31
2023-08-16T10:35:23.940Z,1016.29
2023-08-16T10:36:23.937Z,1016.28
2023-08-16T10:37:25.922Z,1016.31
2023-08-16T10:38:23.960Z,1016.31
2023-08-16T10:39:23.883Z,1016.30
2023-08-16T10:40:26.215Z,1016.31
2023-08-16T10:41:23.955Z,1016.34
2023-08-16T10:42:23.953Z,1016.33
2023-08-16T10:43:23.856Z,1016.34
2023-08-16T10:44:23.862Z,1016.33
2023-08-16T10:45:23.820Z,1016.33
2023-08-16T10:46:23.891Z,1016.33
2023-08-16T10:47:23.983Z,1016.32
2023-08-16T10:48:23.800Z,1016.31
2023-08-16T10:49:23.790Z,1016.29
2023-08-16T10:50:23.774Z,1016.29
2023-08-16T10:51:23.770Z,1016.27
2023-08-16T10:52:24.158Z,1016.29
2023-08-16T10:53:23.793Z,1016.29
2023-08-16T10:54:23.722Z,1016.31
2023-08-16T10:55:23.711Z,1016.31
2023-08-16T10:56:23.699Z,1016.30
2023-08-16T10:57:23.858Z,1016.29
2023-08-16T10:58:23.689Z,1016.28
2023-08-16T10:59:23.663Z,1016.28
2023-08-16T11:00:23.710Z,1016.27
2023-08-16T11:01:23.705Z,1016.29
2023-08-16T11:02:23.681Z,1016.30
2023-08-16T11:03:23.653Z,1016.31
2023-08-16T11:04:23.624Z,1016.31
2023-08-16T11:05:23.672Z,1016.33
2023-08-16T11:06:23.598Z,1016.33
2023-08-16T11:07:23.825Z,1016.34
2023-08-16T11:08:23.634Z,1016.35
2023-08-16T11:09:23.572Z,1016.35
2023-08-16T11:10:23.548Z,1016.37
2023-08-16T11:11:23.541Z,1016.37
2023-08-16T11:12:23.569Z,1016.37
2023-08-16T11:13:23.544Z,1016.38
2023-08-16T11:14:23.530Z,1016.36
2023-08-16T11:15:23.630Z,1016.33
2023-08-16T11:16:23.553Z,1016.29
2023-08-16T11:17:23.835Z,1016.31
2023-08-16T11:18:27.327Z,1016.28
2023-08-16T11:19:23.572Z,1016.26
2023-08-16T11:20:23.529Z,1016.23
2023-08-16T11:21:23.447Z,1016.21
2023-08-16T11:22:23.843Z,1016.19
2023-08-16T11:23:23.456Z,1016.17
2023-08-16T11:24:23.426Z,1016.15
2023-08-16T11:25:23.439Z,1016.19
2023-08-16T11:26:23.415Z,1016.20
2023-08-16T11:27:23.382Z,1016.21
2023-08-16T11:28:23.375Z,1016.23
2023-08-16T11:29:23.381Z,1016.23
2023-08-16T11:30:23.385Z,1016.24
2023-08-16T11:31:23.395Z,1016.24
2023-08-16T11:32:23.503Z,1016.24
2023-08-16T11:33:24.429Z,1016.23
2023-08-16T11:34:23.304Z,1016.23
2023-08-16T11:35:23.311Z,1016.21
2023-08-16T11:36:23.312Z,1016.20
2023-08-16T11:37:23.319Z,1016.21
2023-08-16T11:38:23.275Z,1016.22
2023-08-16T11:39:23.264Z,1016.24
2023-08-16T11:40:23.380Z,1016.27
2023-08-16T11:41:23.232Z,1016.27
2023-08-16T11:42:23.478Z,1016.28
2023-08-16T11:43:23.265Z,1016.27
2023-08-16T11:44:23.214Z,1016.26
2023-08-16T11:45:23.269Z,1016.25
2023-08-16T11:46:23.203Z,1016.25
2023-08-16T11:47:23.439Z,1016.24
2023-08-16T11:48:23.211Z,1016.24
2023-08-16T11:49:23.435Z,1016.23
2023-08-16T11:50:23.169Z,1016.22
2023-08-16T11:51:23.152Z,1016.20
2023-08-16T11:52:23.134Z,1016.20
2023-08-16T11:53:23.130Z,1016.15
2023-08-16T11:54:23.357Z,1016.14
2023-08-16T11:55:23.099Z,1016.14
2023-08-16T11:56:23.089Z,1016.16
2023-08-16T11:57:23.305Z,1016.15
2023-08-16T11:58:23.131Z,1016.17
2023-08-16T11:59:23.087Z,1016.17
2023-08-16T12:00:23.124Z,1016.21
2023-08-16T12:01:23.142Z,1016.20
2023-08-16T12:02:23.032Z,1016.18
2023-08-16T12:03:23.070Z,1016.18
2023-08-16T12:04:23.248Z,1016.19
2023-08-16T12:05:23.039Z,1016.17
2023-08-16T12:06:23.028Z,1016.20
2023-08-16T12:07:23.459Z,1016.21
2023-08-16T12:08:23.079Z,1016.20
2023-08-16T12:09:22.969Z,1016.19
2023-08-16T12:10:22.980Z,1016.18
2023-08-16T12:11:23.359Z,1016.17
2023-08-16T12:12:22.946Z,1016.19
2023-08-16T12:13:22.981Z,1016.19
2023-08-16T12:14:22.911Z,1016.17
2023-08-16T12:15:22.901Z,1016.16
2023-08-16T12:16:22.940Z,1016.15